createdAt,value
2019-02-05T00:01:07.333Z,0
2019-02-05T00:02:17.276Z,0
2019-02-05T00:03:27.223Z,0
2019-02-05T00:04:37.303Z,0
2019-02-05T00:05:47.255Z,0
2019-02-05T00:06:57.207Z,0
2019-02-05T00:08:07.153Z,0
2019-02-05T00:09:17.093Z,0
2019-02-05T00:10:27.141Z,0
2019-02-05T00:11:37.088Z,0
2019-02-05T00:12:47.028Z,0
2019-02-05T00:13:56.965Z,0
2019-02-05T00:15:06.902Z,0
2019-02-05T00:16:16.985Z,0
2019-02-05T00:17:26.920Z,0
2019-02-05T00:18:36.864Z,0
2019-02-05T00:19:46.560Z,0
2019-02-05T00:20:56.501Z,0
2019-02-05T00:22:06.537Z,0
2019-02-05T00:23:16.506Z,0
2019-02-05T00:24:26.444Z,0
2019-02-05T00:25:36.565Z,0
2019-02-05T00:26:46.883Z,0
2019-02-05T00:27:58.004Z,0
2019-02-05T00:29:08.793Z,0
2019-02-05T00:30:19.600Z,0
2019-02-05T00:31:30.395Z,0
2019-02-05T00:32:40.924Z,0
2019-02-05T00:33:51.212Z,0
2019-02-05T00:35:01.492Z,0
2019-02-05T00:36:11.432Z,0
2019-02-05T00:37:21.376Z,0
2019-02-05T00:38:31.312Z,0
2019-02-05T00:39:41.109Z,0
2019-02-05T00:40:51.058Z,0
2019-02-05T00:42:00.998Z,0
2019-02-05T00:43:10.951Z,0
2019-02-05T00:44:20.897Z,0
2019-02-05T00:45:30.917Z,0
2019-02-05T00:46:40.869Z,0
2019-02-05T00:47:50.809Z,0
2019-02-05T00:49:00.754Z,0
2019-02-05T00:50:10.714Z,0
2019-02-05T00:51:20.779Z,0
2019-02-05T00:52:30.718Z,0
2019-02-05T00:53:40.656Z,0
2019-02-05T00:54:50.602Z,0
2019-02-05T00:56:00.541Z,0
2019-02-05T00:57:10.586Z,0
2019-02-05T00:58:20.527Z,0
2019-02-05T00:59:30.467Z,0
2019-02-05T01:00:40.413Z,0
2019-02-05T01:01:50.355Z,0
2019-02-05T01:03:00.361Z,0
2019-02-05T01:04:10.305Z,0
2019-02-05T01:05:20.258Z,0
2019-02-05T01:06:30.207Z,0
2019-02-05T01:07:40.161Z,0
2019-02-05T01:08:50.155Z,0
2019-02-05T01:10:00.322Z,0
2019-02-05T01:11:10.273Z,0
2019-02-05T01:12:20.225Z,0
2019-02-05T01:13:30.245Z,0
2019-02-05T01:14:40.282Z,0
2019-02-05T01:15:50.240Z,0
2019-02-05T01:17:00.175Z,0
2019-02-05T01:18:10.138Z,0
2019-02-05T01:19:20.071Z,0
2019-02-05T01:20:30.016Z,0
2019-02-05T01:21:39.966Z,0
2019-02-05T01:22:50.043Z,0
2019-02-05T01:23:59.801Z,0
2019-02-05T01:25:09.757Z,0
2019-02-05T01:26:31.502Z,0
2019-02-05T01:27:42.696Z,0
2019-02-05T01:28:53.307Z,0
2019-02-05T01:30:03.823Z,0
2019-02-05T01:31:14.059Z,0
2019-02-05T01:32:24.074Z,0
2019-02-05T01:33:34.024Z,0
2019-02-05T01:34:43.972Z,0
2019-02-05T01:35:53.911Z,0
2019-02-05T01:37:04.109Z,0
2019-02-05T01:38:14.061Z,0
2019-02-05T01:39:24.010Z,0
2019-02-05T01:40:34.004Z,0
2019-02-05T01:41:43.951Z,0
2019-02-05T01:42:53.971Z,0
2019-02-05T01:44:03.914Z,0
2019-02-05T01:45:13.866Z,0
2019-02-05T01:46:23.816Z,0
2019-02-05T01:47:33.841Z,0
2019-02-05T01:48:43.775Z,0
2019-02-05T01:49:53.702Z,0
2019-02-05T01:51:03.637Z,0
2019-02-05T01:52:13.576Z,0
2019-02-05T01:53:23.560Z,0
2019-02-05T01:54:33.613Z,0
2019-02-05T01:55:43.657Z,0
2019-02-05T01:56:53.602Z,0
2019-02-05T01:58:03.532Z,0
2019-02-05T01:59:13.488Z,0
2019-02-05T02:00:23.453Z,0
2019-02-05T02:01:33.420Z,0
2019-02-05T02:02:43.376Z,0
2019-02-05T02:03:53.321Z,0
2019-02-05T02:05:03.257Z,0
2019-02-05T02:06:13.241Z,0
2019-02-05T02:07:23.192Z,0
2019-02-05T02:08:33.126Z,0
2019-02-05T02:09:43.054Z,0
2019-02-05T02:10:53.187Z,0
2019-02-05T02:12:03.248Z,0
2019-02-05T02:13:13.186Z,0
2019-02-05T02:14:23.187Z,0
2019-02-05T02:15:33.122Z,0
2019-02-05T02:16:43.063Z,0
2019-02-05T02:17:53.052Z,0
2019-02-05T02:19:03.010Z,0
2019-02-05T02:20:12.957Z,0
2019-02-05T02:21:22.905Z,0
2019-02-05T02:22:32.998Z,0
2019-02-05T02:23:42.991Z,0
2019-02-05T02:24:52.921Z,0
2019-02-05T02:26:02.881Z,0
2019-02-05T02:27:12.826Z,0
2019-02-05T02:28:22.777Z,0
2019-02-05T02:29:32.832Z,0
2019-02-05T02:30:42.805Z,0
2019-02-05T02:31:53.036Z,0
2019-02-05T02:33:03.302Z,0
2019-02-05T02:34:13.954Z,0
2019-02-05T02:35:24.834Z,0
2019-02-05T02:36:35.790Z,0
2019-02-05T02:37:46.430Z,0
2019-02-05T02:38:57.047Z,0
2019-02-05T02:40:07.731Z,0
2019-02-05T02:41:17.870Z,0
2019-02-05T02:42:28.065Z,0
2019-02-05T02:43:38.015Z,0
2019-02-05T02:44:47.975Z,0
2019-02-05T02:45:57.916Z,0
2019-02-05T02:47:07.984Z,0
2019-02-05T02:48:17.929Z,0
2019-02-05T02:49:27.890Z,0
2019-02-05T02:50:37.857Z,0
2019-02-05T02:51:47.799Z,0
2019-02-05T02:52:57.861Z,0
2019-02-05T02:54:07.853Z,0
2019-02-05T02:55:17.856Z,0
2019-02-05T02:56:27.844Z,0
2019-02-05T02:57:37.805Z,0
2019-02-05T02:58:47.782Z,0
2019-02-05T02:59:57.746Z,0
2019-02-05T03:01:08.169Z,0
2019-02-05T03:02:18.128Z,0
2019-02-05T03:03:28.099Z,0
2019-02-05T03:04:38.141Z,0
2019-02-05T03:05:49.182Z,0
2019-02-05T03:06:59.159Z,0
2019-02-05T03:08:09.150Z,0
2019-02-05T03:09:19.123Z,0
2019-02-05T03:10:29.227Z,0
2019-02-05T03:11:39.249Z,0
2019-02-05T03:12:49.246Z,0
2019-02-05T03:13:59.233Z,0
2019-02-05T03:15:09.223Z,0
2019-02-05T03:16:19.187Z,0
2019-02-05T03:17:29.165Z,0
2019-02-05T03:18:39.158Z,0
2019-02-05T03:19:49.154Z,0
2019-02-05T03:20:59.162Z,0
2019-02-05T03:22:09.279Z,0
2019-02-05T03:23:19.276Z,0
2019-02-05T03:24:29.274Z,0
2019-02-05T03:25:39.257Z,0
2019-02-05T03:26:49.249Z,0
2019-02-05T03:28:01.386Z,0
2019-02-05T03:29:11.363Z,0
2019-02-05T03:30:21.386Z,0
2019-02-05T03:31:31.420Z,0
2019-02-05T03:32:41.445Z,0
2019-02-05T03:33:51.589Z,0
2019-02-05T03:35:01.565Z,0
2019-02-05T03:36:11.538Z,0
2019-02-05T03:37:21.511Z,0
2019-02-05T03:38:31.564Z,0
2019-02-05T03:39:41.619Z,0
2019-02-05T03:40:51.575Z,0
2019-02-05T03:42:01.560Z,0
2019-02-05T03:43:11.530Z,0
2019-02-05T03:44:21.498Z,0
2019-02-05T03:45:31.598Z,0
2019-02-05T03:46:41.426Z,0
2019-02-05T03:47:51.403Z,0
2019-02-05T03:49:01.463Z,0
2019-02-05T03:50:10.939Z,0
2019-02-05T03:51:21.045Z,0
2019-02-05T03:52:31.010Z,0
2019-02-05T03:53:40.986Z,0
2019-02-05T03:54:50.960Z,0
2019-02-05T03:56:00.929Z,0
2019-02-05T03:57:11.002Z,0
2019-02-05T03:58:21.008Z,0
2019-02-05T03:59:31.091Z,0
2019-02-05T04:00:40.828Z,0
2019-02-05T04:01:50.904Z,0
2019-02-05T04:03:00.908Z,0
2019-02-05T04:04:10.884Z,0
2019-02-05T04:05:20.951Z,0
2019-02-05T04:06:30.930Z,0
2019-02-05T04:07:40.898Z,0
2019-02-05T04:08:50.882Z,0
2019-02-05T04:10:00.856Z,0
2019-02-05T04:11:10.888Z,0
2019-02-05T04:12:20.976Z,0
2019-02-05T04:13:31.209Z,0
2019-02-05T04:14:41.657Z,0
2019-02-05T04:15:52.616Z,0
2019-02-05T04:17:03.535Z,0
2019-02-05T04:18:14.360Z,0
2019-02-05T04:19:24.982Z,0
2019-02-05T04:20:35.526Z,0
2019-02-05T04:21:45.793Z,0
2019-02-05T04:22:55.988Z,0
2019-02-05T04:24:05.721Z,0
2019-02-05T04:25:15.698Z,0
2019-02-05T04:26:25.506Z,0
2019-02-05T04:27:50.077Z,0
2019-02-05T04:29:00.059Z,0
2019-02-05T04:30:10.032Z,0
2019-02-05T04:31:19.762Z,0
2019-02-05T04:32:29.747Z,0
2019-02-05T04:33:39.702Z,0
2019-02-05T04:34:49.659Z,0
2019-02-05T04:35:59.621Z,0
2019-02-05T04:37:09.709Z,0
2019-02-05T04:38:19.681Z,0
2019-02-05T04:39:29.653Z,0
2019-02-05T04:40:39.633Z,0
2019-02-05T04:41:49.598Z,0
2019-02-05T04:42:59.688Z,0
2019-02-05T04:44:09.665Z,0
2019-02-05T04:45:19.638Z,0
2019-02-05T04:46:41.235Z,0
2019-02-05T04:47:51.250Z,0
2019-02-05T04:49:01.326Z,0
2019-02-05T04:50:11.295Z,0
2019-02-05T04:51:21.281Z,0
2019-02-05T04:52:31.011Z,0
2019-02-05T04:53:41.030Z,0
2019-02-05T04:54:51.013Z,0
2019-02-05T04:56:00.987Z,0
2019-02-05T04:57:10.960Z,0
2019-02-05T04:58:21.061Z,0
2019-02-05T04:59:31.453Z,0
2019-02-05T05:00:42.204Z,0
2019-02-05T05:01:52.960Z,0
2019-02-05T05:03:03.693Z,0
2019-02-05T05:04:14.793Z,0
2019-02-05T05:05:25.122Z,0
2019-02-05T05:06:35.597Z,0
2019-02-05T05:07:45.850Z,0
2019-02-05T05:08:55.984Z,0
2019-02-05T05:10:05.962Z,0
2019-02-05T05:11:15.968Z,0
2019-02-05T05:12:25.935Z,0
2019-02-05T05:13:35.941Z,0
2019-02-05T05:14:45.947Z,0
2019-02-05T05:15:55.919Z,0
2019-02-05T05:17:05.980Z,0
2019-02-05T05:18:18.026Z,0
2019-02-05T05:19:27.999Z,0
2019-02-05T05:20:37.973Z,0
2019-02-05T05:21:47.957Z,0
2019-02-05T05:22:57.943Z,0
2019-02-05T05:24:08.010Z,0
2019-02-05T05:25:18.001Z,0
2019-02-05T05:26:27.970Z,0
2019-02-05T05:27:37.955Z,0
2019-02-05T05:28:47.748Z,0
2019-02-05T05:29:57.713Z,0
2019-02-05T05:31:07.983Z,0
2019-02-05T05:32:17.953Z,0
2019-02-05T05:33:27.939Z,0
2019-02-05T05:34:37.964Z,0
2019-02-05T05:35:51.712Z,0
2019-02-05T05:37:01.717Z,0
2019-02-05T05:38:11.705Z,0
2019-02-05T05:39:21.666Z,0
2019-02-05T05:40:31.827Z,0
2019-02-05T05:41:41.975Z,0
2019-02-05T05:42:51.933Z,0
2019-02-05T05:44:01.889Z,0
2019-02-05T05:45:11.894Z,0
2019-02-05T05:46:21.713Z,0
2019-02-05T05:47:31.697Z,0
2019-02-05T05:48:41.673Z,0
2019-02-05T05:49:51.634Z,0
2019-02-05T05:51:01.612Z,0
2019-02-05T05:52:11.644Z,0
2019-02-05T05:53:21.616Z,0
2019-02-05T05:54:31.596Z,0
2019-02-05T05:55:41.607Z,0
2019-02-05T05:56:51.681Z,0
2019-02-05T05:58:01.535Z,0
2019-02-05T05:59:11.500Z,0
2019-02-05T06:00:21.473Z,0
2019-02-05T06:01:31.443Z,4
2019-02-05T06:02:44.715Z,0
2019-02-05T06:03:54.922Z,0
2019-02-05T06:05:05.017Z,0
2019-02-05T06:06:15.145Z,0
2019-02-05T06:07:25.106Z,0
2019-02-05T06:08:35.329Z,0
2019-02-05T06:09:45.450Z,4
2019-02-05T06:10:55.412Z,0
2019-02-05T06:12:05.176Z,0
2019-02-05T06:13:15.151Z,0
2019-02-05T06:14:25.163Z,0
2019-02-05T06:15:38.362Z,0
2019-02-05T06:16:48.336Z,0
2019-02-05T06:17:58.446Z,0
2019-02-05T06:19:08.418Z,0
2019-02-05T06:20:18.400Z,0
2019-02-05T06:21:28.755Z,0
2019-02-05T06:22:39.055Z,0
2019-02-05T06:23:49.518Z,0
2019-02-05T06:25:00.379Z,0
2019-02-05T06:26:11.191Z,0
2019-02-05T06:27:22.283Z,0
2019-02-05T06:28:41.839Z,0
2019-02-05T06:29:51.812Z,0
2019-02-05T06:31:01.778Z,0
2019-02-05T06:32:11.746Z,0
2019-02-05T06:33:23.523Z,0
2019-02-05T06:34:33.653Z,0
2019-02-05T06:35:43.628Z,0
2019-02-05T06:36:53.625Z,0
2019-02-05T06:38:03.603Z,0
2019-02-05T06:39:13.687Z,0
2019-02-05T06:40:23.677Z,0
2019-02-05T06:41:33.650Z,0
2019-02-05T06:42:43.621Z,0
2019-02-05T06:43:53.687Z,0
2019-02-05T06:45:03.656Z,4
2019-02-05T06:46:13.631Z,0
2019-02-05T06:47:23.602Z,4
2019-02-05T06:48:33.580Z,4
2019-02-05T06:49:43.542Z,8
2019-02-05T06:50:53.364Z,4
2019-02-05T06:52:04.567Z,8
2019-02-05T06:53:14.551Z,8
2019-02-05T06:54:24.528Z,8
2019-02-05T06:55:34.540Z,8
2019-02-05T06:56:47.300Z,8
2019-02-05T06:57:57.294Z,12
2019-02-05T06:59:07.246Z,12
2019-02-05T07:00:17.233Z,16
2019-02-05T07:01:27.210Z,20
2019-02-05T07:02:37.328Z,20
2019-02-05T07:03:47.283Z,24
2019-02-05T07:04:57.263Z,24
2019-02-05T07:06:07.225Z,28
2019-02-05T07:07:17.201Z,36
2019-02-05T07:08:27.223Z,40
2019-02-05T07:09:37.243Z,44
2019-02-05T07:10:47.243Z,48
2019-02-05T07:11:57.242Z,52
2019-02-05T07:13:07.209Z,60
2019-02-05T07:14:17.224Z,64
2019-02-05T07:15:27.196Z,72
2019-02-05T07:16:37.158Z,80
2019-02-05T07:17:56.913Z,88
2019-02-05T07:19:06.861Z,96
2019-02-05T07:20:16.870Z,104
2019-02-05T07:21:26.826Z,116
2019-02-05T07:22:36.842Z,120
2019-02-05T07:23:46.809Z,128
2019-02-05T07:24:56.771Z,136
2019-02-05T07:26:06.842Z,148
2019-02-05T07:27:16.921Z,156
2019-02-05T07:28:27.262Z,168
2019-02-05T07:29:37.656Z,180
2019-02-05T07:30:48.241Z,192
2019-02-05T07:31:59.292Z,208
2019-02-05T07:33:10.075Z,220
2019-02-05T07:34:23.887Z,236
2019-02-05T07:35:34.820Z,248
2019-02-05T07:36:45.562Z,264
2019-02-05T07:37:55.892Z,284
2019-02-05T07:39:06.487Z,308
2019-02-05T07:40:17.056Z,336
2019-02-05T07:41:27.536Z,368
2019-02-05T07:42:38.004Z,400
2019-02-05T07:43:48.618Z,436
2019-02-05T07:44:58.898Z,476
2019-02-05T07:46:09.124Z,524
2019-02-05T07:47:19.406Z,576
2019-02-05T07:48:33.077Z,632
2019-02-05T07:49:43.200Z,680
2019-02-05T07:50:53.183Z,732
2019-02-05T07:52:03.197Z,784
2019-02-05T07:53:13.201Z,836
2019-02-05T07:54:23.197Z,876
2019-02-05T07:55:33.245Z,904
2019-02-05T07:56:43.242Z,924
2019-02-05T07:57:53.292Z,944
2019-02-05T07:59:14.971Z,964
2019-02-05T08:00:24.959Z,976
2019-02-05T08:01:35.025Z,1000
2019-02-05T08:02:45.050Z,1020
2019-02-05T08:03:55.063Z,1040
2019-02-05T08:05:08.130Z,1068
2019-02-05T08:06:18.182Z,1092
2019-02-05T08:07:28.154Z,1112
2019-02-05T08:08:37.933Z,1128
2019-02-05T08:09:47.909Z,1140
2019-02-05T08:10:57.929Z,1160
2019-02-05T08:12:08.051Z,1176
2019-02-05T08:13:18.127Z,1200
2019-02-05T08:14:28.155Z,1232
2019-02-05T08:15:38.175Z,1252
2019-02-05T08:16:50.338Z,1276
2019-02-05T08:18:00.375Z,1292
2019-02-05T08:19:10.376Z,1304
2019-02-05T08:20:20.367Z,1312
2019-02-05T08:21:30.367Z,1316
2019-02-05T08:22:40.379Z,1324
2019-02-05T08:23:50.452Z,1340
2019-02-05T08:25:00.451Z,1364
2019-02-05T08:26:10.460Z,1392
2019-02-05T08:27:20.468Z,1424
2019-02-05T08:28:40.523Z,1456
2019-02-05T08:29:51.184Z,1484
2019-02-05T08:31:01.158Z,1500
2019-02-05T08:32:11.181Z,1500
2019-02-05T08:33:21.283Z,1504
2019-02-05T08:34:31.338Z,1508
2019-02-05T08:35:41.459Z,1508
2019-02-05T08:36:51.468Z,1520
2019-02-05T08:38:01.553Z,1544
2019-02-05T08:39:11.552Z,1580
2019-02-05T08:40:21.535Z,1624
2019-02-05T08:41:31.651Z,1672
2019-02-05T08:42:41.652Z,1728
2019-02-05T08:43:51.622Z,1780
2019-02-05T08:45:01.637Z,1828
2019-02-05T08:46:11.654Z,1876
2019-02-05T08:47:21.752Z,1932
2019-02-05T08:48:31.755Z,1988
2019-02-05T08:49:41.766Z,2044
2019-02-05T08:50:51.811Z,2120
2019-02-05T08:52:01.917Z,2200
2019-02-05T08:53:11.974Z,2272
2019-02-05T08:54:21.701Z,2344
2019-02-05T08:55:33.427Z,2408
2019-02-05T08:56:43.440Z,2460
2019-02-05T08:57:53.436Z,2504
2019-02-05T08:59:03.746Z,2472
2019-02-05T09:00:14.019Z,2496
2019-02-05T09:01:24.627Z,2632
2019-02-05T09:02:35.266Z,2688
2019-02-05T09:03:45.987Z,2756
2019-02-05T09:04:57.055Z,2828
2019-02-05T09:06:08.185Z,2900
2019-02-05T09:07:18.921Z,2968
2019-02-05T09:08:29.890Z,3024
2019-02-05T09:09:40.300Z,3068
2019-02-05T09:10:50.956Z,3096
2019-02-05T09:12:01.167Z,3120
2019-02-05T09:13:11.463Z,3132
2019-02-05T09:14:21.704Z,3148
2019-02-05T09:15:36.954Z,3164
2019-02-05T09:16:47.037Z,3168
2019-02-05T09:17:57.037Z,3184
2019-02-05T09:19:07.029Z,3192
2019-02-05T09:20:17.031Z,3212
2019-02-05T09:21:27.007Z,3240
2019-02-05T09:22:37.104Z,3268
2019-02-05T09:23:47.084Z,3296
2019-02-05T09:24:57.068Z,3320
2019-02-05T09:26:07.235Z,3348
2019-02-05T09:27:17.263Z,3372
2019-02-05T09:28:27.309Z,3400
2019-02-05T09:29:40.889Z,3432
2019-02-05T09:30:50.908Z,3480
2019-02-05T09:32:00.964Z,3532
2019-02-05T09:33:10.937Z,3576
2019-02-05T09:34:21.056Z,3612
2019-02-05T09:35:31.064Z,3648
2019-02-05T09:36:41.058Z,3672
2019-02-05T09:37:51.051Z,3688
2019-02-05T09:39:01.056Z,3680
2019-02-05T09:40:11.092Z,3676
2019-02-05T09:41:21.085Z,3668
2019-02-05T09:42:31.118Z,3668
2019-02-05T09:43:41.128Z,3672
2019-02-05T09:44:51.166Z,3688
2019-02-05T09:46:01.297Z,3708
2019-02-05T09:47:11.305Z,3732
2019-02-05T09:48:21.292Z,3764
2019-02-05T09:49:31.383Z,3796
2019-02-05T09:50:51.754Z,3840
2019-02-05T09:52:01.889Z,3856
2019-02-05T09:53:11.932Z,3852
2019-02-05T09:54:21.913Z,3832
2019-02-05T09:55:31.912Z,3796
2019-02-05T09:56:43.851Z,3748
2019-02-05T09:57:53.938Z,3700
2019-02-05T09:59:03.953Z,3640
2019-02-05T10:00:13.995Z,3588
2019-02-05T10:01:23.978Z,3548
2019-02-05T10:02:33.973Z,3504
2019-02-05T10:03:44.072Z,3452
2019-02-05T10:04:54.070Z,3404
2019-02-05T10:06:04.050Z,3348
2019-02-05T10:07:14.056Z,3308
2019-02-05T10:08:24.063Z,3272
2019-02-05T10:09:34.274Z,3260
2019-02-05T10:10:44.335Z,3244
2019-02-05T10:11:54.322Z,3224
2019-02-05T10:13:04.449Z,3208
2019-02-05T10:14:14.590Z,3204
2019-02-05T10:15:24.644Z,3200
2019-02-05T10:16:34.663Z,3200
2019-02-05T10:17:44.680Z,3208
2019-02-05T10:18:54.453Z,3220
2019-02-05T10:20:04.441Z,3236
2019-02-05T10:21:14.765Z,3268
2019-02-05T10:22:25.089Z,3316
2019-02-05T10:23:35.483Z,3376
2019-02-05T10:24:46.147Z,3428
2019-02-05T10:25:58.116Z,3484
2019-02-05T10:27:09.163Z,3544
2019-02-05T10:28:19.869Z,3616
2019-02-05T10:29:31.107Z,3660
2019-02-05T10:30:41.886Z,3700
2019-02-05T10:31:52.153Z,3724
2019-02-05T10:33:02.528Z,3764
2019-02-05T10:34:12.551Z,3804
2019-02-05T10:35:22.567Z,3860
2019-02-05T10:36:32.559Z,3904
2019-02-05T10:37:42.539Z,3956
2019-02-05T10:38:52.599Z,3988
2019-02-05T10:40:02.783Z,4012
2019-02-05T10:41:12.791Z,4056
2019-02-05T10:42:22.770Z,4096
2019-02-05T10:43:32.868Z,4080
2019-02-05T10:44:42.964Z,4080
2019-02-05T10:45:52.949Z,4052
2019-02-05T10:47:02.924Z,4024
2019-02-05T10:48:13.069Z,3976
2019-02-05T10:49:22.968Z,3936
2019-02-05T10:50:33.132Z,3936
2019-02-05T10:51:43.140Z,3908
2019-02-05T10:52:53.241Z,3880
2019-02-05T10:54:03.251Z,3864
2019-02-05T10:55:13.267Z,3888
2019-02-05T10:56:23.390Z,3904
2019-02-05T10:57:33.403Z,3932
2019-02-05T10:58:43.400Z,3948
2019-02-05T10:59:54.385Z,3972
2019-02-05T11:01:16.084Z,3992
2019-02-05T11:02:26.196Z,4004
2019-02-05T11:03:36.208Z,4048
2019-02-05T11:04:46.203Z,4088
2019-02-05T11:05:56.213Z,4112
2019-02-05T11:07:06.342Z,4152
2019-02-05T11:08:16.373Z,4196
2019-02-05T11:09:26.361Z,4264
2019-02-05T11:10:36.386Z,4300
2019-02-05T11:11:46.387Z,4348
2019-02-05T11:12:56.449Z,4380
2019-02-05T11:14:06.425Z,4376
2019-02-05T11:15:16.394Z,4408
2019-02-05T11:16:26.393Z,4428
2019-02-05T11:17:36.417Z,4464
2019-02-05T11:18:46.414Z,4476
2019-02-05T11:19:56.421Z,4480
2019-02-05T11:21:09.340Z,4492
2019-02-05T11:22:19.098Z,4492
2019-02-05T11:23:28.872Z,4480
2019-02-05T11:24:38.864Z,4448
2019-02-05T11:25:48.994Z,4464
2019-02-05T11:26:59.022Z,4464
2019-02-05T11:28:08.862Z,4384
2019-02-05T11:29:18.877Z,4356
2019-02-05T11:30:28.690Z,4432
2019-02-05T11:31:38.690Z,4412
2019-02-05T11:32:48.701Z,4320
2019-02-05T11:34:00.683Z,4404
2019-02-05T11:35:10.650Z,4516
2019-02-05T11:36:20.772Z,4560
2019-02-05T11:37:30.793Z,4540
2019-02-05T11:38:40.819Z,4504
2019-02-05T11:39:50.794Z,4456
2019-02-05T11:41:00.768Z,4344
2019-02-05T11:42:10.881Z,4416
2019-02-05T11:43:20.899Z,4440
2019-02-05T11:44:30.641Z,4392
2019-02-05T11:45:40.645Z,4340
2019-02-05T11:46:50.655Z,4324
2019-02-05T11:48:01.245Z,4308
2019-02-05T11:49:11.563Z,4240
2019-02-05T11:50:22.219Z,4256
2019-02-05T11:51:33.032Z,4212
2019-02-05T11:52:43.842Z,4180
2019-02-05T11:53:54.577Z,4128
2019-02-05T11:55:05.422Z,4116
2019-02-05T11:56:16.459Z,4072
2019-02-05T11:57:27.824Z,4036
2019-02-05T11:58:38.366Z,3980
2019-02-05T11:59:48.751Z,3960
2019-02-05T12:00:59.039Z,3908
2019-02-05T12:02:09.397Z,3856
2019-02-05T12:03:19.590Z,3792
2019-02-05T12:04:29.598Z,3732
2019-02-05T12:05:39.680Z,3676
2019-02-05T12:06:49.690Z,3620
2019-02-05T12:07:59.676Z,3592
2019-02-05T12:09:09.697Z,3592
2019-02-05T12:10:19.699Z,3616
2019-02-05T12:11:29.805Z,3664
2019-02-05T12:12:39.842Z,3700
2019-02-05T12:13:49.858Z,3700
2019-02-05T12:14:59.894Z,3760
2019-02-05T12:16:09.901Z,3820
2019-02-05T12:17:20.123Z,3848
2019-02-05T12:18:30.141Z,3872
2019-02-05T12:19:40.164Z,3928
2019-02-05T12:20:50.187Z,3976
2019-02-05T12:22:00.287Z,3980
2019-02-05T12:23:10.346Z,3972
2019-02-05T12:24:20.331Z,3980
2019-02-05T12:25:30.358Z,3984
2019-02-05T12:26:40.381Z,3948
2019-02-05T12:27:50.359Z,3936
2019-02-05T12:29:00.455Z,3932
2019-02-05T12:30:10.444Z,3924
2019-02-05T12:31:20.405Z,3920
2019-02-05T12:32:30.452Z,3920
2019-02-05T12:33:40.438Z,3904
2019-02-05T12:34:50.498Z,3868
2019-02-05T12:36:00.457Z,3808
2019-02-05T12:37:10.233Z,3784
2019-02-05T12:38:20.218Z,3736
2019-02-05T12:39:30.196Z,3700
2019-02-05T12:40:40.210Z,3704
2019-02-05T12:41:50.191Z,3728
2019-02-05T12:43:00.160Z,3736
2019-02-05T12:44:10.240Z,3744
2019-02-05T12:45:20.213Z,3764
2019-02-05T12:46:30.289Z,3800
2019-02-05T12:47:40.287Z,3848
2019-02-05T12:48:50.264Z,3896
2019-02-05T12:50:00.342Z,3960
2019-02-05T12:51:10.353Z,4024
2019-02-05T12:52:20.427Z,4064
2019-02-05T12:53:30.412Z,4100
2019-02-05T12:54:40.390Z,4108
2019-02-05T12:55:50.383Z,4104
2019-02-05T12:57:00.097Z,4108
2019-02-05T12:58:10.117Z,4100
2019-02-05T12:59:20.061Z,4076
2019-02-05T13:00:30.104Z,4036
2019-02-05T13:01:40.049Z,3996
2019-02-05T13:02:49.997Z,3964
2019-02-05T13:04:02.318Z,3936
2019-02-05T13:05:12.259Z,3920
2019-02-05T13:06:22.209Z,3896
2019-02-05T13:07:32.155Z,3868
2019-02-05T13:08:42.110Z,3840
2019-02-05T13:09:51.923Z,3812
2019-02-05T13:11:01.877Z,3788
2019-02-05T13:12:11.838Z,3776
2019-02-05T13:13:23.174Z,3764
2019-02-05T13:14:33.119Z,3748
2019-02-05T13:15:43.155Z,3736
2019-02-05T13:16:53.109Z,3728
2019-02-05T13:18:03.050Z,3712
2019-02-05T13:19:12.986Z,3684
2019-02-05T13:20:23.020Z,3648
2019-02-05T13:21:33.207Z,3612
2019-02-05T13:22:43.540Z,3580
2019-02-05T13:23:54.077Z,3548
2019-02-05T13:25:04.690Z,3524
2019-02-05T13:26:15.699Z,3500
2019-02-05T13:27:27.040Z,3476
2019-02-05T13:28:37.654Z,3464
2019-02-05T13:29:48.079Z,3452
2019-02-05T13:31:07.554Z,3440
2019-02-05T13:32:18.046Z,3444
2019-02-05T13:33:28.102Z,3444
2019-02-05T13:34:38.092Z,3440
2019-02-05T13:35:48.052Z,3436
2019-02-05T13:36:57.996Z,3432
2019-02-05T13:38:08.113Z,3440
2019-02-05T13:39:18.061Z,3448
2019-02-05T13:40:28.020Z,3444
2019-02-05T13:41:37.976Z,3436
2019-02-05T13:42:47.932Z,3440
2019-02-05T13:43:57.973Z,3448
2019-02-05T13:45:07.927Z,3452
2019-02-05T13:46:17.886Z,3456
2019-02-05T13:47:29.664Z,3456
2019-02-05T13:48:39.618Z,3472
2019-02-05T13:49:49.366Z,3476
2019-02-05T13:50:59.321Z,3476
2019-02-05T13:52:09.298Z,3476
2019-02-05T13:53:19.253Z,3500
2019-02-05T13:54:29.260Z,3540
2019-02-05T13:55:39.361Z,3584
2019-02-05T13:56:49.317Z,3628
2019-02-05T13:57:59.284Z,3684
2019-02-05T13:59:09.289Z,3728
2019-02-05T14:00:19.370Z,3756
2019-02-05T14:01:29.417Z,3792
2019-02-05T14:02:39.379Z,3800
2019-02-05T14:03:49.325Z,3764
2019-02-05T14:04:59.392Z,3688
2019-02-05T14:06:09.472Z,3596
2019-02-05T14:07:19.588Z,3484
2019-02-05T14:08:29.539Z,3384
2019-02-05T14:09:39.490Z,3280
2019-02-05T14:10:49.453Z,3236
2019-02-05T14:11:59.408Z,3216
2019-02-05T14:13:09.503Z,3148
2019-02-05T14:14:19.494Z,3020
2019-02-05T14:15:29.448Z,2884
2019-02-05T14:16:39.403Z,2764
2019-02-05T14:17:49.360Z,2660
2019-02-05T14:19:02.929Z,2544
2019-02-05T14:20:13.849Z,2440
2019-02-05T14:21:25.180Z,2352
2019-02-05T14:22:36.272Z,2292
2019-02-05T14:23:46.906Z,2240
2019-02-05T14:24:57.164Z,2208
2019-02-05T14:26:07.351Z,2180
2019-02-05T14:27:17.509Z,2156
2019-02-05T14:28:27.267Z,2128
2019-02-05T14:29:37.212Z,2096
2019-02-05T14:30:47.223Z,2076
2019-02-05T14:31:57.179Z,2064
2019-02-05T14:33:07.123Z,2044
2019-02-05T14:34:17.076Z,2020
2019-02-05T14:35:27.008Z,1988
2019-02-05T14:36:37.057Z,1936
2019-02-05T14:37:47.023Z,1888
2019-02-05T14:38:56.969Z,1844
2019-02-05T14:40:06.927Z,1812
2019-02-05T14:41:16.871Z,1784
2019-02-05T14:42:26.922Z,1768
2019-02-05T14:43:36.866Z,1752
2019-02-05T14:44:46.817Z,1744
2019-02-05T14:45:56.796Z,1748
2019-02-05T14:47:06.746Z,1748
2019-02-05T14:48:16.735Z,1748
2019-02-05T14:49:26.679Z,1744
2019-02-05T14:50:36.633Z,1740
2019-02-05T14:51:46.579Z,1728
2019-02-05T14:52:56.521Z,1700
2019-02-05T14:54:06.721Z,1664
2019-02-05T14:55:16.767Z,1616
2019-02-05T14:56:26.714Z,1556
2019-02-05T14:57:36.666Z,1496
2019-02-05T14:58:46.611Z,1412
2019-02-05T14:59:56.557Z,1372
2019-02-05T15:01:06.485Z,1324
2019-02-05T15:02:16.429Z,1276
2019-02-05T15:03:26.369Z,1240
2019-02-05T15:04:36.335Z,1204
2019-02-05T15:05:46.388Z,1184
2019-02-05T15:06:56.335Z,1160
2019-02-05T15:08:08.438Z,1144
2019-02-05T15:09:18.384Z,1132
2019-02-05T15:10:28.328Z,1104
2019-02-05T15:11:38.371Z,1076
2019-02-05T15:12:48.305Z,1040
2019-02-05T15:13:58.234Z,1004
2019-02-05T15:15:08.181Z,968
2019-02-05T15:16:18.131Z,928
2019-02-05T15:17:28.176Z,892
2019-02-05T15:18:38.225Z,856
2019-02-05T15:19:48.165Z,820
2019-02-05T15:20:58.109Z,788
2019-02-05T15:22:08.190Z,756
2019-02-05T15:23:18.181Z,720
2019-02-05T15:24:40.950Z,684
2019-02-05T15:25:51.209Z,648
2019-02-05T15:27:01.160Z,616
2019-02-05T15:28:11.123Z,584
2019-02-05T15:29:21.188Z,552
2019-02-05T15:30:31.132Z,524
2019-02-05T15:31:41.084Z,492
2019-02-05T15:33:01.698Z,460
2019-02-05T15:34:11.689Z,428
2019-02-05T15:35:21.624Z,404
2019-02-05T15:36:33.898Z,376
2019-02-05T15:37:43.849Z,348
2019-02-05T15:38:53.784Z,324
2019-02-05T15:40:03.831Z,304
2019-02-05T15:41:13.771Z,276
2019-02-05T15:42:23.711Z,256
2019-02-05T15:43:33.668Z,236
2019-02-05T15:44:43.620Z,216
2019-02-05T15:45:53.607Z,196
2019-02-05T15:47:03.562Z,176
2019-02-05T15:48:13.539Z,160
2019-02-05T15:49:23.488Z,140
2019-02-05T15:50:34.785Z,128
2019-02-05T15:51:44.564Z,112
2019-02-05T15:52:54.525Z,100
2019-02-05T15:54:04.480Z,88
2019-02-05T15:55:14.428Z,76
2019-02-05T15:56:24.377Z,68
2019-02-05T15:57:34.379Z,56
2019-02-05T15:58:44.330Z,52
2019-02-05T15:59:54.272Z,44
2019-02-05T16:01:04.231Z,40
2019-02-05T16:02:14.253Z,32
2019-02-05T16:03:24.307Z,28
2019-02-05T16:04:34.255Z,24
2019-02-05T16:05:43.949Z,20
2019-02-05T16:06:53.904Z,20
2019-02-05T16:08:03.856Z,16
2019-02-05T16:09:13.921Z,16
2019-02-05T16:10:23.877Z,12
2019-02-05T16:11:34.168Z,12
2019-02-05T16:12:44.439Z,8
2019-02-05T16:13:54.967Z,8
2019-02-05T16:15:05.747Z,8
2019-02-05T16:16:19.387Z,4
2019-02-05T16:17:29.948Z,4
2019-02-05T16:18:40.194Z,4
2019-02-05T16:19:50.301Z,4
2019-02-05T16:21:00.450Z,0
2019-02-05T16:22:10.451Z,0
2019-02-05T16:23:20.424Z,4
2019-02-05T16:24:30.369Z,4